Terminal Aerodrome Forecast
Issued by NWS

Home | Current Version | Previous Version | Text Only | Print | Product List | Glossary On
Versions: 1 2 3 4 5 6 7 8 9 10 11 12 13 14 15 16 17
000
FTUS41 KBOX 282332
TAFBED
TAF
KBED 282332Z 2900/2924 26007KT P6SM SCT080
     FM290300 VRB03KT P6SM SCT100
     FM291200 23004KT P6SM BKN110
     FM292000 21010G21KT P6SM BKN060=

USA.gov is the U.S. government's official web portal to all federal, state and local government web resources and services.